createdAt,value
2022-09-18T00:01:16.764Z,3.63
2022-09-18T00:03:19.396Z,3.33
2022-09-18T00:05:21.980Z,3.73
2022-09-18T00:07:24.911Z,3.60
2022-09-18T00:09:33.707Z,3.23
2022-09-18T00:11:38.769Z,3.53
2022-09-18T00:13:41.566Z,3.63
2022-09-18T00:15:44.659Z,3.97
2022-09-18T00:17:47.439Z,3.57
2022-09-18T00:19:50.281Z,3.40
2022-09-18T00:21:52.865Z,3.20
2022-09-18T00:23:57.272Z,3.20
2022-09-18T00:25:59.798Z,3.10
2022-09-18T00:28:03.765Z,2.97
2022-09-18T00:30:07.007Z,2.93
2022-09-18T00:32:09.848Z,3.50
2022-09-18T00:34:14.374Z,3.50
2022-09-18T00:36:17.986Z,3.20
2022-09-18T00:38:20.544Z,3.10
2022-09-18T00:40:23.124Z,3.67
2022-09-18T00:42:25.742Z,3.57
2022-09-18T00:44:36.250Z,2.40
2022-09-18T00:46:38.935Z,3.20
2022-09-18T00:48:45.643Z,3.17
2022-09-18T00:50:48.188Z,2.80
2022-09-18T00:52:53.084Z,2.93
2022-09-18T00:54:57.405Z,3.20
2022-09-18T00:57:01.367Z,2.60
2022-09-18T00:59:03.954Z,3.20
2022-09-18T01:01:08.979Z,2.60
2022-09-18T01:03:11.852Z,2.90
2022-09-18T01:05:15.010Z,3.00
2022-09-18T01:07:22.071Z,2.67
2022-09-18T01:09:29.363Z,3.20
2022-09-18T01:11:34.693Z,2.87
2022-09-18T01:13:42.507Z,2.70
2022-09-18T01:15:49.404Z,2.27
2022-09-18T01:17:55.912Z,2.70
2022-09-18T01:20:18.186Z,2.87
2022-09-18T01:22:26.240Z,2.80
2022-09-18T01:24:41.022Z,3.00
2022-09-18T01:26:51.370Z,3.23
2022-09-18T01:28:57.590Z,2.63
2022-09-18T01:31:03.038Z,2.37
2022-09-18T01:33:07.588Z,2.63
2022-09-18T01:35:36.822Z,2.57
2022-09-18T01:37:37.184Z,3.00
2022-09-18T01:39:41.930Z,2.37
2022-09-18T01:41:50.641Z,2.70
2022-09-18T01:43:56.501Z,3.03
2022-09-18T01:46:01.858Z,2.77
2022-09-18T01:48:05.901Z,2.60
2022-09-18T01:50:09.120Z,2.23
2022-09-18T01:52:13.198Z,2.77
2022-09-18T01:54:16.817Z,2.50
2022-09-18T01:56:22.425Z,2.43
2022-09-18T01:58:25.089Z,2.57
2022-09-18T02:00:30.302Z,2.30
2022-09-18T02:02:36.471Z,2.23
2022-09-18T02:04:39.812Z,2.70
2022-09-18T02:06:44.290Z,2.47
2022-09-18T02:08:48.765Z,1.93
2022-09-18T02:10:53.350Z,2.20
2022-09-18T02:12:56.356Z,2.50
2022-09-18T02:15:00.360Z,2.10
2022-09-18T02:17:06.062Z,2.53
2022-09-18T02:19:09.276Z,2.40
2022-09-18T02:21:13.266Z,2.27
2022-09-18T02:23:15.845Z,2.00
2022-09-18T02:25:20.572Z,1.80
2022-09-18T02:27:23.146Z,2.20
2022-09-18T02:29:25.716Z,2.23
2022-09-18T02:31:28.688Z,2.17
2022-09-18T02:33:33.390Z,2.17
2022-09-18T02:35:38.825Z,2.47
2022-09-18T02:37:47.078Z,2.40
2022-09-18T02:39:57.089Z,1.87
2022-09-18T02:42:03.687Z,2.20
2022-09-18T02:44:08.924Z,1.80
2022-09-18T02:46:14.214Z,2.33
2022-09-18T02:48:26.602Z,2.53
2022-09-18T02:50:33.772Z,1.53
2022-09-18T02:52:40.060Z,1.60
2022-09-18T02:54:45.971Z,2.03
2022-09-18T02:56:50.425Z,2.00
2022-09-18T02:58:54.566Z,1.80
2022-09-18T03:00:59.614Z,1.90
2022-09-18T03:03:02.772Z,2.00
2022-09-18T03:05:06.038Z,2.27
2022-09-18T03:07:09.927Z,2.20
2022-09-18T03:09:12.552Z,2.10
2022-09-18T03:11:15.395Z,2.20
2022-09-18T03:13:17.954Z,2.10
2022-09-18T03:15:22.211Z,1.87
2022-09-18T03:17:25.183Z,2.00
2022-09-18T03:19:28.149Z,1.77
2022-09-18T03:21:30.778Z,2.10
2022-09-18T03:23:40.241Z,2.13
2022-09-18T03:25:44.878Z,2.10
2022-09-18T03:27:47.875Z,2.00
2022-09-18T03:29:50.470Z,1.83
2022-09-18T03:31:53.286Z,1.60
2022-09-18T03:33:55.907Z,2.73
2022-09-18T03:35:58.829Z,2.20
2022-09-18T03:38:01.401Z,1.80
2022-09-18T03:40:05.767Z,1.63
2022-09-18T03:42:08.379Z,1.83
2022-09-18T03:44:11.918Z,2.20
2022-09-18T03:46:14.659Z,1.63
2022-09-18T03:48:17.295Z,1.70
2022-09-18T03:50:20.216Z,1.70
2022-09-18T03:52:22.780Z,1.90
2022-09-18T03:54:25.822Z,1.50
2022-09-18T03:56:29.723Z,1.83
2022-09-18T03:58:32.750Z,1.40
2022-09-18T04:00:35.456Z,1.33
2022-09-18T04:02:38.055Z,1.70
2022-09-18T04:04:40.615Z,1.70
2022-09-18T04:06:43.183Z,1.43
2022-09-18T04:08:45.716Z,1.70
2022-09-18T04:10:48.305Z,1.60
2022-09-18T04:12:52.590Z,1.33
2022-09-18T04:14:55.848Z,1.33
2022-09-18T04:16:58.433Z,1.60
2022-09-18T04:19:00.982Z,1.63
2022-09-18T04:21:03.878Z,1.30
2022-09-18T04:23:06.670Z,1.53
2022-09-18T04:25:09.859Z,1.50
2022-09-18T04:27:12.391Z,1.60
2022-09-18T04:29:16.793Z,1.63
2022-09-18T04:31:19.428Z,1.57
2022-09-18T04:33:22.099Z,1.60
2022-09-18T04:35:24.836Z,1.57
2022-09-18T04:37:28.755Z,1.60
2022-09-18T04:39:32.534Z,1.33
2022-09-18T04:41:35.117Z,1.60
2022-09-18T04:43:37.701Z,1.70
2022-09-18T04:45:41.954Z,1.20
2022-09-18T04:47:45.018Z,1.50
2022-09-18T04:49:48.269Z,1.90
2022-09-18T04:51:50.815Z,1.63
2022-09-18T04:53:53.890Z,1.30
2022-09-18T04:55:56.748Z,2.00
2022-09-18T04:58:01.352Z,1.17
2022-09-18T05:00:06.643Z,1.20
2022-09-18T05:02:11.003Z,1.20
2022-09-18T05:04:13.758Z,1.20
2022-09-18T05:06:18.508Z,1.40
2022-09-18T05:08:21.316Z,1.63
2022-09-18T05:10:25.036Z,1.23
2022-09-18T05:12:27.620Z,1.70
2022-09-18T05:14:33.320Z,1.47
2022-09-18T05:16:35.958Z,1.80
2022-09-18T05:18:40.806Z,1.40
2022-09-18T05:20:43.419Z,1.50
2022-09-18T05:22:46.822Z,1.60
2022-09-18T05:24:50.059Z,1.40
2022-09-18T05:26:52.974Z,1.40
2022-09-18T05:28:55.512Z,1.37
2022-09-18T05:30:59.857Z,1.47
2022-09-18T05:33:03.551Z,1.27
2022-09-18T05:35:08.064Z,1.43
2022-09-18T05:37:10.717Z,1.80
2022-09-18T05:39:17.446Z,1.67
2022-09-18T05:41:20.456Z,1.40
2022-09-18T05:43:23.395Z,1.40
2022-09-18T05:45:26.081Z,1.20
2022-09-18T05:47:28.667Z,1.20
2022-09-18T05:49:31.212Z,1.30
2022-09-18T05:51:35.532Z,1.30
2022-09-18T05:53:38.087Z,1.40
2022-09-18T05:55:40.834Z,1.40
2022-09-18T05:57:43.573Z,1.50
2022-09-18T05:59:49.070Z,1.47
2022-09-18T06:01:51.844Z,1.10
2022-09-18T06:03:54.624Z,1.10
2022-09-18T06:05:57.278Z,1.30
2022-09-18T06:08:01.840Z,1.30
2022-09-18T06:10:04.535Z,1.57
2022-09-18T06:12:07.552Z,1.30
2022-09-18T06:14:10.129Z,1.47
2022-09-18T06:16:13.215Z,1.60
2022-09-18T06:18:16.027Z,1.40
2022-09-18T06:20:19.825Z,1.37
2022-09-18T06:22:22.564Z,1.30
2022-09-18T06:24:26.847Z,1.10
2022-09-18T06:26:29.433Z,1.20
2022-09-18T06:28:32.462Z,1.20
2022-09-18T06:30:35.888Z,1.27
2022-09-18T06:32:38.996Z,1.40
2022-09-18T06:34:41.601Z,1.30
2022-09-18T06:36:44.209Z,1.20
2022-09-18T06:38:50.567Z,1.50
2022-09-18T06:40:54.741Z,1.10
2022-09-18T06:42:57.710Z,1.00
2022-09-18T06:45:00.255Z,1.67
2022-09-18T06:47:02.887Z,1.10
2022-09-18T06:49:05.885Z,1.50
2022-09-18T06:51:09.504Z,1.20
2022-09-18T06:53:14.311Z,1.27
2022-09-18T06:55:17.092Z,1.50
2022-09-18T06:57:24.609Z,1.27
2022-09-18T06:59:27.279Z,1.40
2022-09-18T07:01:31.124Z,1.23
2022-09-18T07:03:34.037Z,1.30
2022-09-18T07:05:40.788Z,1.43
2022-09-18T07:07:46.553Z,1.50
2022-09-18T07:09:50.197Z,1.40
2022-09-18T07:11:52.747Z,1.20
2022-09-18T07:13:56.792Z,1.80
2022-09-18T07:16:01.874Z,1.40
2022-09-18T07:18:06.946Z,1.50
2022-09-18T07:20:11.004Z,1.37
2022-09-18T07:22:13.659Z,1.73
2022-09-18T07:24:16.601Z,1.43
2022-09-18T07:26:19.686Z,1.40
2022-09-18T07:28:25.702Z,1.93
2022-09-18T07:30:30.569Z,2.20
2022-09-18T07:32:33.207Z,2.13
2022-09-18T07:34:35.814Z,2.30
2022-09-18T07:36:38.354Z,2.30
2022-09-18T07:38:43.094Z,2.70
2022-09-18T07:40:45.960Z,3.07
2022-09-18T07:42:48.933Z,3.20
2022-09-18T07:44:51.976Z,3.30
2022-09-18T07:46:56.194Z,3.40
2022-09-18T07:48:58.874Z,3.43
2022-09-18T07:51:01.562Z,3.67
2022-09-18T07:53:05.603Z,3.33
2022-09-18T07:55:08.740Z,3.80
2022-09-18T07:57:11.343Z,3.50
2022-09-18T07:59:13.921Z,3.90
2022-09-18T08:01:17.040Z,4.03
2022-09-18T08:03:21.920Z,4.10
2022-09-18T08:05:24.693Z,4.33
2022-09-18T08:07:27.534Z,4.67
2022-09-18T08:09:35.941Z,4.00
2022-09-18T08:11:39.001Z,4.30
2022-09-18T08:13:41.771Z,4.70
2022-09-18T08:15:44.422Z,5.40
2022-09-18T08:17:47.596Z,4.40
2022-09-18T08:19:51.459Z,4.80
2022-09-18T08:21:54.044Z,4.37
2022-09-18T08:23:56.591Z,4.73
2022-09-18T08:26:00.689Z,4.57
2022-09-18T08:28:03.995Z,4.57
2022-09-18T08:30:07.303Z,4.60
2022-09-18T08:32:10.222Z,4.20
2022-09-18T08:34:13.545Z,4.33
2022-09-18T08:36:17.413Z,4.57
2022-09-18T08:38:19.981Z,4.50
2022-09-18T08:40:24.314Z,4.00
2022-09-18T08:42:28.770Z,4.30
2022-09-18T08:44:32.317Z,3.83
2022-09-18T08:46:37.461Z,4.10
2022-09-18T08:48:42.451Z,4.10
2022-09-18T08:50:49.087Z,4.50
2022-09-18T08:52:54.480Z,4.03
2022-09-18T08:55:00.330Z,3.80
2022-09-18T08:57:03.769Z,4.10
2022-09-18T08:59:07.029Z,4.37
2022-09-18T09:01:10.639Z,4.53
2022-09-18T09:03:27.874Z,5.03
2022-09-18T09:05:32.490Z,4.70
2022-09-18T09:07:47.370Z,4.80
2022-09-18T09:10:00.669Z,4.40
2022-09-18T09:12:06.973Z,4.70
2022-09-18T09:14:18.060Z,4.53
2022-09-18T09:16:24.854Z,4.20
2022-09-18T09:18:31.272Z,4.43
2022-09-18T09:20:42.216Z,4.30
2022-09-18T09:22:49.633Z,4.10
2022-09-18T09:24:59.963Z,4.37
2022-09-18T09:27:07.031Z,3.83
2022-09-18T09:29:13.020Z,4.67
2022-09-18T09:31:15.692Z,3.90
2022-09-18T09:33:21.739Z,4.23
2022-09-18T09:35:26.571Z,4.00
2022-09-18T09:37:35.684Z,4.10
2022-09-18T09:39:40.265Z,3.60
2022-09-18T09:41:46.023Z,4.17
2022-09-18T09:43:53.369Z,4.47
2022-09-18T09:45:56.537Z,4.17
2022-09-18T09:48:03.276Z,4.63
2022-09-18T09:50:16.436Z,5.00
2022-09-18T09:52:21.746Z,5.20
2022-09-18T09:54:26.621Z,4.60
2022-09-18T09:56:31.996Z,4.57
2022-09-18T09:58:42.758Z,4.70
2022-09-18T10:00:47.861Z,4.97
2022-09-18T10:02:58.438Z,5.00
2022-09-18T10:05:04.266Z,5.60
2022-09-18T10:07:12.149Z,6.30
2022-09-18T10:09:17.378Z,5.73
2022-09-18T10:11:20.497Z,5.93
2022-09-18T10:13:25.639Z,6.60
2022-09-18T10:15:34.829Z,6.40
2022-09-18T10:17:37.606Z,6.70
2022-09-18T10:19:42.356Z,8.00
2022-09-18T10:21:45.452Z,7.67
2022-09-18T10:23:54.077Z,7.67
2022-09-18T10:26:03.155Z,9.87
2022-09-18T10:28:06.744Z,9.23
2022-09-18T10:30:14.473Z,9.60
2022-09-18T10:32:34.887Z,10.63
2022-09-18T10:34:41.226Z,11.23
2022-09-18T10:36:44.504Z,11.03
2022-09-18T10:38:49.456Z,9.97
2022-09-18T10:40:52.131Z,10.43
2022-09-18T10:42:55.114Z,10.50
2022-09-18T10:45:01.689Z,12.40
2022-09-18T10:47:07.478Z,12.00
2022-09-18T10:49:19.786Z,11.67
2022-09-18T10:51:25.594Z,11.50
2022-09-18T10:53:32.519Z,12.03
2022-09-18T10:55:36.328Z,12.70
2022-09-18T10:57:39.992Z,11.57
2022-09-18T10:59:45.200Z,12.10
2022-09-18T11:01:47.906Z,12.10
2022-09-18T11:04:00.524Z,12.20
2022-09-18T11:06:05.036Z,12.43
2022-09-18T11:08:08.906Z,13.20
2022-09-18T11:10:16.510Z,11.83
2022-09-18T11:12:21.643Z,12.20
2022-09-18T11:14:25.273Z,12.07
2022-09-18T11:16:29.872Z,12.73
2022-09-18T11:18:32.733Z,12.70
2022-09-18T11:20:43.795Z,12.60
2022-09-18T11:22:47.691Z,12.87
2022-09-18T11:24:50.296Z,11.67
2022-09-18T11:27:00.195Z,12.23
2022-09-18T11:29:04.523Z,12.63
2022-09-18T11:31:07.910Z,12.43
2022-09-18T11:33:15.661Z,12.73
2022-09-18T11:35:18.948Z,11.67
2022-09-18T11:37:27.514Z,11.33
2022-09-18T11:39:36.911Z,11.37
2022-09-18T11:41:40.070Z,11.10
2022-09-18T11:43:45.468Z,11.00
2022-09-18T11:45:52.859Z,10.70
2022-09-18T11:47:56.771Z,12.53
2022-09-18T11:50:05.634Z,12.30
2022-09-18T11:52:13.509Z,11.77
2022-09-18T11:54:23.614Z,11.60
2022-09-18T11:56:32.413Z,11.13
2022-09-18T11:58:37.556Z,10.73
2022-09-18T12:00:43.398Z,11.57
2022-09-18T12:02:51.407Z,11.50
2022-09-18T12:04:55.399Z,10.27
2022-09-18T12:07:01.310Z,12.17
2022-09-18T12:09:09.625Z,10.37
2022-09-18T12:11:19.432Z,11.27
2022-09-18T12:13:33.911Z,11.17
2022-09-18T12:15:38.087Z,11.33
2022-09-18T12:17:44.227Z,11.57
2022-09-18T12:19:49.337Z,10.13
2022-09-18T12:21:56.347Z,10.87
2022-09-18T12:23:59.014Z,10.40
2022-09-18T12:26:07.231Z,11.00
2022-09-18T12:28:14.407Z,10.67
2022-09-18T12:30:19.164Z,10.90
2022-09-18T12:32:29.166Z,10.40
2022-09-18T12:34:35.326Z,10.67
2022-09-18T12:36:48.102Z,10.40
2022-09-18T12:38:58.984Z,9.63
2022-09-18T12:41:09.954Z,10.00
2022-09-18T12:43:25.026Z,10.53
2022-09-18T12:45:39.601Z,10.53
2022-09-18T12:47:50.499Z,9.80
2022-09-18T12:50:03.704Z,10.30
2022-09-18T12:52:13.668Z,9.30
2022-09-18T12:54:23.954Z,9.70
2022-09-18T12:56:35.448Z,8.90
2022-09-18T12:58:51.281Z,9.40
2022-09-18T13:00:55.199Z,9.87
2022-09-18T13:03:00.583Z,9.70
2022-09-18T13:05:05.889Z,9.50
2022-09-18T13:07:14.901Z,9.50
2022-09-18T13:09:25.171Z,9.50
2022-09-18T13:11:30.107Z,9.07
2022-09-18T13:13:42.301Z,10.20
2022-09-18T13:15:47.201Z,9.70
2022-09-18T13:18:00.819Z,10.17
2022-09-18T13:20:07.432Z,9.27
2022-09-18T13:22:14.288Z,9.70
2022-09-18T13:24:18.100Z,8.83
2022-09-18T13:26:23.935Z,9.10
2022-09-18T13:28:27.553Z,9.30
2022-09-18T13:30:30.999Z,9.57
2022-09-18T13:32:39.633Z,9.67
2022-09-18T13:34:49.939Z,9.13
2022-09-18T13:36:52.568Z,9.90
2022-09-18T13:38:55.402Z,9.00
2022-09-18T13:41:00.833Z,9.20
2022-09-18T13:43:16.095Z,9.53
2022-09-18T13:45:21.567Z,9.73
2022-09-18T13:47:24.547Z,8.53
2022-09-18T13:49:29.667Z,8.50
2022-09-18T13:51:36.148Z,8.20
2022-09-18T13:53:41.968Z,9.00
2022-09-18T13:55:49.881Z,8.20
2022-09-18T13:57:52.575Z,9.47
2022-09-18T14:00:07.315Z,8.47
2022-09-18T14:02:23.594Z,8.70
2022-09-18T14:04:51.246Z,8.43
2022-09-18T14:06:55.565Z,7.57
2022-09-18T14:08:58.181Z,8.43
2022-09-18T14:11:15.667Z,8.30
2022-09-18T14:13:30.174Z,8.63
2022-09-18T14:15:32.778Z,8.50
2022-09-18T14:17:36.997Z,7.43
2022-09-18T14:19:40.553Z,8.10
2022-09-18T14:21:44.204Z,8.33
2022-09-18T14:24:07.350Z,7.87
2022-09-18T14:26:10.175Z,8.13
2022-09-18T14:28:14.535Z,8.53
2022-09-18T14:30:19.766Z,7.87
2022-09-18T14:32:25.172Z,8.30
2022-09-18T14:34:31.522Z,8.03
2022-09-18T14:36:44.299Z,8.20
2022-09-18T14:38:46.916Z,8.20
2022-09-18T14:40:54.324Z,8.77
2022-09-18T14:42:56.940Z,9.37
2022-09-18T14:45:13.126Z,8.90
2022-09-18T14:47:20.363Z,8.97
2022-09-18T14:49:30.851Z,8.70
2022-09-18T14:51:49.300Z,8.03
2022-09-18T14:53:56.018Z,8.47
2022-09-18T14:56:02.165Z,8.23
2022-09-18T14:58:07.369Z,7.60
2022-09-18T15:00:16.941Z,7.80
2022-09-18T15:02:21.935Z,6.97
2022-09-18T15:04:25.822Z,7.80
2022-09-18T15:06:34.987Z,7.40
2022-09-18T15:08:38.085Z,7.40
2022-09-18T15:10:41.022Z,7.00
2022-09-18T15:12:48.055Z,6.93
2022-09-18T15:14:50.999Z,7.20
2022-09-18T15:16:57.995Z,6.90
2022-09-18T15:19:01.219Z,7.00
2022-09-18T15:21:03.856Z,7.20
2022-09-18T15:23:19.087Z,7.40
2022-09-18T15:25:22.878Z,7.60
2022-09-18T15:27:28.532Z,8.10
2022-09-18T15:29:33.959Z,7.10
2022-09-18T15:31:36.652Z,6.47
2022-09-18T15:33:49.486Z,7.70
2022-09-18T15:35:52.298Z,7.80
2022-09-18T15:38:02.526Z,7.50
2022-09-18T15:40:19.410Z,7.30
2022-09-18T15:42:27.789Z,7.73
2022-09-18T15:45:00.339Z,6.87
2022-09-18T15:47:28.663Z,7.30
2022-09-18T15:49:31.569Z,7.67
2022-09-18T15:51:34.763Z,7.70
2022-09-18T15:53:38.550Z,6.27
2022-09-18T15:55:53.345Z,6.97
2022-09-18T15:57:59.439Z,6.90
2022-09-18T16:00:04.245Z,7.17
2022-09-18T16:02:29.178Z,7.03
2022-09-18T16:04:32.978Z,6.90
2022-09-18T16:06:40.867Z,6.60
2022-09-18T16:08:44.031Z,6.40
2022-09-18T16:10:48.945Z,6.27
2022-09-18T16:12:51.571Z,6.83
2022-09-18T16:15:01.461Z,6.80
2022-09-18T16:17:36.430Z,6.80
2022-09-18T16:19:39.445Z,6.27
2022-09-18T16:21:43.592Z,6.40
2022-09-18T16:23:50.166Z,5.60
2022-09-18T16:26:06.532Z,6.30
2022-09-18T16:28:24.394Z,6.37
2022-09-18T16:30:27.464Z,6.30
2022-09-18T16:32:30.059Z,6.47
2022-09-18T16:34:34.473Z,6.17
2022-09-18T16:36:38.204Z,7.50
2022-09-18T16:38:40.791Z,5.97
2022-09-18T16:40:43.593Z,6.23
2022-09-18T16:42:46.677Z,6.60
2022-09-18T16:44:52.099Z,6.30
2022-09-18T16:46:57.693Z,6.90
2022-09-18T16:49:00.246Z,6.50
2022-09-18T16:51:04.563Z,6.87
2022-09-18T16:53:08.259Z,7.10
2022-09-18T16:55:16.594Z,7.70
2022-09-18T16:57:20.357Z,7.97
2022-09-18T16:59:25.065Z,7.90
2022-09-18T17:01:28.078Z,7.90
2022-09-18T17:03:30.687Z,6.90
2022-09-18T17:05:33.355Z,8.10
2022-09-18T17:07:37.704Z,7.90
2022-09-18T17:09:40.286Z,7.70
2022-09-18T17:11:42.843Z,8.03
2022-09-18T17:13:45.417Z,8.73
2022-09-18T17:15:48.460Z,7.77
2022-09-18T17:17:51.148Z,8.53
2022-09-18T17:19:53.981Z,8.87
2022-09-18T17:21:57.020Z,8.90
2022-09-18T17:24:02.060Z,8.30
2022-09-18T17:26:06.417Z,8.63
2022-09-18T17:28:10.430Z,8.00
2022-09-18T17:30:13.664Z,9.27
2022-09-18T17:32:16.726Z,8.40
2022-09-18T17:34:19.327Z,8.80
2022-09-18T17:36:21.911Z,9.27
2022-09-18T17:38:25.064Z,9.40
2022-09-18T17:40:29.340Z,9.50
2022-09-18T17:42:32.068Z,9.80
2022-09-18T17:44:35.309Z,9.60
2022-09-18T17:46:38.282Z,9.43
2022-09-18T17:48:40.911Z,9.03
2022-09-18T17:50:44.039Z,10.23
2022-09-18T17:52:46.624Z,9.40
2022-09-18T17:54:49.556Z,8.97
2022-09-18T17:56:53.413Z,9.13
2022-09-18T17:58:57.653Z,10.20
2022-09-18T18:01:00.635Z,9.10
2022-09-18T18:03:03.557Z,9.30
2022-09-18T18:05:06.834Z,9.33
2022-09-18T18:07:09.408Z,9.60
2022-09-18T18:09:11.961Z,9.00
2022-09-18T18:11:16.052Z,9.50
2022-09-18T18:13:19.909Z,8.83
2022-09-18T18:15:22.491Z,9.17
2022-09-18T18:17:25.090Z,9.30
2022-09-18T18:19:28.183Z,9.00
2022-09-18T18:21:31.372Z,9.70
2022-09-18T18:23:33.970Z,9.93
2022-09-18T18:25:36.546Z,10.20
2022-09-18T18:27:39.538Z,9.70
2022-09-18T18:29:43.399Z,9.67
2022-09-18T18:31:49.045Z,9.70
2022-09-18T18:33:51.868Z,9.73
2022-09-18T18:35:54.813Z,9.67
2022-09-18T18:37:58.140Z,10.07
2022-09-18T18:40:00.760Z,10.10
2022-09-18T18:42:03.368Z,9.87
2022-09-18T18:44:06.489Z,10.60
2022-09-18T18:46:12.729Z,9.37
2022-09-18T18:48:15.345Z,9.73
2022-09-18T18:50:18.080Z,10.00
2022-09-18T18:52:21.585Z,9.63
2022-09-18T18:54:24.266Z,10.30
2022-09-18T18:56:26.842Z,9.67
2022-09-18T18:58:30.941Z,10.30
2022-09-18T19:00:34.422Z,9.60
2022-09-18T19:02:39.317Z,10.50
2022-09-18T19:04:43.145Z,11.27
2022-09-18T19:06:52.363Z,9.40
2022-09-18T19:08:56.320Z,9.30
2022-09-18T19:10:59.210Z,10.33
2022-09-18T19:13:01.787Z,9.07
2022-09-18T19:15:04.531Z,9.33
2022-09-18T19:17:17.163Z,9.50
2022-09-18T19:19:23.669Z,9.27
2022-09-18T19:21:26.420Z,9.27
2022-09-18T19:23:29.015Z,9.20
2022-09-18T19:25:32.058Z,8.93
2022-09-18T19:27:34.610Z,9.30
2022-09-18T19:29:40.253Z,7.83
2022-09-18T19:31:46.629Z,7.87
2022-09-18T19:33:53.092Z,8.47
2022-09-18T19:35:57.000Z,9.90
2022-09-18T19:38:02.990Z,8.60
2022-09-18T19:40:06.109Z,8.77
2022-09-18T19:42:12.196Z,10.23
2022-09-18T19:44:27.496Z,9.90
2022-09-18T19:46:30.903Z,9.53
2022-09-18T19:48:33.617Z,8.40
2022-09-18T19:50:37.969Z,8.47
2022-09-18T19:52:45.400Z,9.40
2022-09-18T19:54:50.809Z,8.97
2022-09-18T19:56:53.399Z,9.07
2022-09-18T19:58:55.963Z,9.40
2022-09-18T20:01:00.341Z,9.50
2022-09-18T20:03:02.965Z,9.10
2022-09-18T20:05:07.705Z,9.00
2022-09-18T20:07:10.737Z,9.40
2022-09-18T20:09:32.832Z,9.13
2022-09-18T20:11:35.588Z,10.53
2022-09-18T20:13:38.500Z,9.53
2022-09-18T20:15:41.084Z,9.83
2022-09-18T20:17:43.659Z,9.63
2022-09-18T20:19:46.673Z,9.90
2022-09-18T20:21:50.343Z,10.07
2022-09-18T20:23:56.832Z,9.50
2022-09-18T20:26:00.678Z,9.30
2022-09-18T20:28:03.881Z,9.00
2022-09-18T20:30:07.998Z,8.30
2022-09-18T20:32:10.686Z,9.00
2022-09-18T20:34:14.001Z,9.20
2022-09-18T20:36:17.212Z,9.10
2022-09-18T20:38:19.924Z,8.87
2022-09-18T20:40:22.617Z,9.13
2022-09-18T20:42:26.897Z,8.73
2022-09-18T20:44:30.453Z,8.97
2022-09-18T20:46:37.141Z,8.87
2022-09-18T20:48:41.524Z,8.47
2022-09-18T20:50:47.693Z,8.67
2022-09-18T20:52:50.671Z,8.07
2022-09-18T20:54:53.230Z,9.27
2022-09-18T20:57:04.508Z,8.10
2022-09-18T20:59:20.910Z,8.90
2022-09-18T21:01:24.505Z,8.90
2022-09-18T21:03:27.584Z,7.50
2022-09-18T21:05:30.157Z,9.10
2022-09-18T21:07:33.659Z,8.40
2022-09-18T21:09:36.386Z,8.47
2022-09-18T21:11:40.775Z,8.47
2022-09-18T21:13:47.937Z,8.37
2022-09-18T21:15:51.847Z,7.30
2022-09-18T21:17:54.527Z,7.07
2022-09-18T21:19:57.464Z,6.87
2022-09-18T21:22:00.057Z,7.67
2022-09-18T21:24:02.513Z,8.10
2022-09-18T21:26:17.462Z,7.67
2022-09-18T21:28:29.098Z,6.90
2022-09-18T21:30:32.483Z,6.90
2022-09-18T21:32:36.336Z,7.13
2022-09-18T21:34:42.366Z,7.27
2022-09-18T21:36:45.340Z,6.93
2022-09-18T21:38:51.041Z,6.90
2022-09-18T21:40:54.511Z,6.73
2022-09-18T21:42:57.500Z,7.23
2022-09-18T21:45:14.721Z,7.50
2022-09-18T21:47:17.252Z,6.80
2022-09-18T21:49:22.656Z,7.20
2022-09-18T21:51:25.583Z,6.90
2022-09-18T21:53:29.584Z,6.77
2022-09-18T21:55:37.583Z,6.93
2022-09-18T21:57:40.156Z,6.60
2022-09-18T21:59:43.177Z,6.67
2022-09-18T22:01:47.639Z,7.10
2022-09-18T22:03:53.437Z,6.57
2022-09-18T22:05:57.453Z,6.40
2022-09-18T22:07:59.992Z,6.90
2022-09-18T22:10:02.601Z,6.30
2022-09-18T22:12:05.597Z,6.07
2022-09-18T22:14:09.557Z,7.23
2022-09-18T22:16:12.955Z,7.00
2022-09-18T22:18:15.552Z,6.70
2022-09-18T22:20:18.613Z,7.10
2022-09-18T22:22:23.100Z,5.40
2022-09-18T22:24:26.218Z,6.53
2022-09-18T22:26:28.798Z,6.10
2022-09-18T22:28:31.548Z,6.07
2022-09-18T22:30:34.526Z,5.90
2022-09-18T22:32:37.130Z,5.97
2022-09-18T22:34:41.498Z,6.20
2022-09-18T22:36:44.093Z,6.10
2022-09-18T22:38:48.344Z,6.20
2022-09-18T22:40:50.901Z,6.20
2022-09-18T22:42:53.450Z,6.27
2022-09-18T22:44:56.031Z,6.40
2022-09-18T22:46:59.084Z,5.57
2022-09-18T22:49:01.858Z,6.27
2022-09-18T22:51:06.802Z,5.20
2022-09-18T22:53:10.451Z,5.97
2022-09-18T22:55:14.675Z,5.77
2022-09-18T22:57:17.248Z,6.27
2022-09-18T22:59:20.518Z,5.93
2022-09-18T23:01:24.275Z,6.83
2022-09-18T23:03:27.152Z,5.50
2022-09-18T23:05:29.706Z,6.40
2022-09-18T23:07:32.243Z,6.10
2022-09-18T23:09:34.799Z,5.73
2022-09-18T23:11:38.999Z,5.63
2022-09-18T23:13:42.135Z,6.20
2022-09-18T23:15:44.690Z,5.50
2022-09-18T23:17:47.300Z,6.30
2022-09-18T23:19:51.239Z,5.13
2022-09-18T23:21:53.952Z,5.40
2022-09-18T23:23:56.594Z,6.10
2022-09-18T23:26:03.846Z,5.80
2022-09-18T23:28:08.192Z,5.37
2022-09-18T23:30:11.496Z,5.30
2022-09-18T23:32:14.233Z,5.27
2022-09-18T23:34:18.993Z,5.00
2022-09-18T23:36:22.757Z,5.67
2022-09-18T23:38:25.337Z,5.40
2022-09-18T23:40:27.929Z,5.00
2022-09-18T23:42:30.523Z,5.30
2022-09-18T23:44:34.446Z,5.13
2022-09-18T23:46:37.134Z,5.50
2022-09-18T23:48:39.817Z,4.93
2022-09-18T23:50:43.132Z,5.17
2022-09-18T23:52:45.693Z,4.53
2022-09-18T23:54:48.264Z,4.70
2022-09-18T23:56:50.899Z,4.60
2022-09-18T23:58:54.355Z,5.70
